This is the latest recevied weather packets stored in our database for station/object DC4THF-13. If no packets are shown the sender has not sent any weather packets the latest 1 day(s).
| Time | Temp. | Humidity | Pressure | Rain* | Wind** | Luminosity | Snow |
|---|---|---|---|---|---|---|---|
| 1777969967 | 17.78° C | 70% | 1004 hPa | 0 mm | 0 m/s | - | - |
| 1777969363 | 18.33° C | 70% | 1004.1 hPa | 0 mm | 0.45 m/s, 90° | - | - |
| 1777968760 | 17.22° C | 76% | 1004.3 hPa | 0 mm | 0 m/s | - | - |
| 1777967552 | 16.11° C | 77% | 1004.4 hPa | 0 mm | 0.45 m/s, 68° | - | - |
| 1777966948 | 16.11° C | 78% | 1004.3 hPa | 0 mm | 0 m/s | - | - |
| 1777966345 | 15.56° C | 78% | 1004.4 hPa | 0 mm | 0.45 m/s, 90° | - | - |
| 1777965741 | 15.56° C | 78% | 1004.5 hPa | 0 mm | 0 m/s | - | - |
| 1777965138 | 15.56° C | 79% | 1004.4 hPa | 0 mm | 0.89 m/s, 100° | - | - |
| 1777964535 | 15° C | 79% | 1004.4 hPa | 0 mm | 0.45 m/s, 112° | - | - |
| 1777963992 | 15° C | 80% | 1004.1 hPa | 0 mm | 0.45 m/s, 63° | - | - |
| 1777963389 | 15° C | 80% | 1004.3 hPa | 0 mm | 0.45 m/s, 8° | - | - |
| 1777962785 | 14.44° C | 80% | 1004.4 hPa | 0 mm | 0 m/s | - | - |
| 1777962182 | 14.44° C | 80% | 1004.2 hPa | 0.25 mm | 0.45 m/s, 46° | - | - |
| 1777961579 | 14.44° C | 81% | 1004.4 hPa | 0.25 mm | 0 m/s | - | - |
| 1777960975 | 14.44° C | 82% | 1004.6 hPa | 0.25 mm | 0.45 m/s, 101° | - | - |
| 1777960371 | 14.44° C | 82% | 1004.6 hPa | 0.25 mm | 0 m/s | - | - |
| 1777959767 | 13.89° C | 82% | 1004.7 hPa | 0.25 mm | 0 m/s | - | - |
| 1777959164 | 13.89° C | 82% | 1004.7 hPa | 0.25 mm | 0 m/s | - | - |
| 1777957957 | 13.89° C | 81% | 1004.7 hPa | 0 mm | 0 m/s | - | - |
| 1777956749 | 13.33° C | 81% | 1004.6 hPa | 0 mm | 0.45 m/s, 0° | - | - |
| 1777956145 | 13.33° C | 80% | 1004.6 hPa | 0 mm | 0.45 m/s, 0° | - | - |
| 1777955542 | 13.89° C | 80% | 1004.6 hPa | 0 mm | 0 m/s | - | - |
| 1777954336 | 13.33° C | 80% | 1004.7 hPa | 0 mm | 0.45 m/s, 315° | - | - |
| 1777953793 | 13.33° C | 80% | 1004.7 hPa | 0 mm | 0 m/s | - | - |
| 1777950174 | 13.89° C | 76% | 1005 hPa | 0 mm | 0 m/s | - | - |
* Rain latest hour (hover to see other rain measurements)
** Current wind speed in m/s (hover to see current wind gust speed)